createdAt,value
2022-09-22T00:00:21.259Z,8.20
2022-09-22T00:02:47.929Z,8.20
2022-09-22T00:05:14.747Z,8.30
2022-09-22T00:07:41.412Z,8.30
2022-09-22T00:10:08.054Z,8.30
2022-09-22T00:12:37.145Z,8.20
2022-09-22T00:15:04.391Z,8.20
2022-09-22T00:17:31.551Z,8.10
2022-09-22T00:19:58.225Z,8.10
2022-09-22T00:22:26.060Z,8.00
2022-09-22T00:24:52.934Z,8.00
2022-09-22T00:27:19.583Z,7.90
2022-09-22T00:29:47.062Z,7.90
2022-09-22T00:32:14.334Z,7.80
2022-09-22T00:34:40.960Z,7.80
2022-09-22T00:37:07.651Z,7.80
2022-09-22T00:39:34.258Z,7.80
2022-09-22T00:42:00.976Z,7.80
2022-09-22T00:44:32.900Z,7.80
2022-09-22T00:47:02.667Z,7.70
2022-09-22T00:49:49.674Z,7.70
2022-09-22T00:52:19.461Z,7.80
2022-09-22T00:54:46.575Z,7.70
2022-09-22T00:57:22.489Z,7.80
2022-09-22T00:59:50.222Z,7.80
2022-09-22T01:02:17.094Z,7.80
2022-09-22T01:04:44.390Z,7.80
2022-09-22T01:07:12.159Z,7.80
2022-09-22T01:09:38.988Z,7.80
2022-09-22T01:12:05.846Z,7.80
2022-09-22T01:14:55.950Z,7.80
2022-09-22T01:17:22.635Z,7.70
2022-09-22T01:20:15.241Z,7.70
2022-09-22T01:22:57.340Z,7.70
2022-09-22T01:25:42.434Z,7.70
2022-09-22T01:28:27.908Z,7.70
2022-09-22T01:31:00.858Z,7.70
2022-09-22T01:33:30.637Z,7.70
2022-09-22T01:36:07.913Z,7.70
2022-09-22T01:39:01.066Z,7.60
2022-09-22T01:41:42.990Z,7.60
2022-09-22T01:44:15.042Z,7.50
2022-09-22T01:46:45.690Z,7.50
2022-09-22T01:49:14.545Z,7.50
2022-09-22T01:51:47.038Z,7.40
2022-09-22T01:54:18.881Z,7.40
2022-09-22T01:56:48.659Z,7.40
2022-09-22T01:59:16.658Z,7.40
2022-09-22T02:01:50.752Z,7.30
2022-09-22T02:04:22.890Z,7.30
2022-09-22T02:06:52.384Z,7.30
2022-09-22T02:09:44.592Z,7.30
2022-09-22T02:16:19.836Z,7.20
2022-09-22T02:18:46.760Z,7.20
2022-09-22T02:21:14.024Z,7.20
2022-09-22T02:23:41.314Z,7.20
2022-09-22T02:26:29.827Z,7.20
2022-09-22T02:29:02.215Z,7.10
2022-09-22T02:31:31.167Z,7.10
2022-09-22T02:33:57.938Z,7.10
2022-09-22T02:36:38.508Z,7.10
2022-09-22T02:39:10.080Z,7.10
2022-09-22T02:41:52.008Z,7.00
2022-09-22T02:44:25.246Z,7.10
2022-09-22T02:46:59.642Z,7.10
2022-09-22T02:49:26.647Z,7.00
2022-09-22T02:51:53.797Z,7.10
2022-09-22T02:54:20.842Z,7.00
2022-09-22T02:56:47.505Z,7.00
2022-09-22T02:59:14.228Z,6.90
2022-09-22T03:01:41.015Z,7.00
2022-09-22T03:04:07.781Z,6.90
2022-09-22T03:06:34.858Z,6.90
2022-09-22T03:09:01.612Z,6.80
2022-09-22T03:11:28.243Z,6.80
2022-09-22T03:13:55.095Z,6.80
2022-09-22T03:16:21.794Z,6.80
2022-09-22T03:18:48.465Z,6.80
2022-09-22T03:21:15.194Z,6.70
2022-09-22T03:23:41.967Z,6.70
2022-09-22T03:26:08.587Z,6.80
2022-09-22T03:28:35.616Z,6.70
2022-09-22T03:31:02.324Z,6.70
2022-09-22T03:33:29.094Z,6.70
2022-09-22T03:35:55.801Z,6.70
2022-09-22T03:38:22.851Z,6.70
2022-09-22T03:40:50.723Z,6.70
2022-09-22T03:43:17.436Z,6.70
2022-09-22T03:45:44.300Z,6.70
2022-09-22T03:48:11.042Z,6.70
2022-09-22T03:50:37.600Z,6.70
2022-09-22T03:53:04.246Z,6.70
2022-09-22T03:55:30.831Z,6.70
2022-09-22T03:57:57.452Z,6.70
2022-09-22T04:00:24.090Z,6.70
2022-09-22T04:02:50.770Z,6.70
2022-09-22T04:05:17.465Z,6.70
2022-09-22T04:07:44.385Z,6.70
2022-09-22T04:10:11.029Z,6.70
2022-09-22T04:12:37.761Z,6.80
2022-09-22T04:15:04.679Z,6.70
2022-09-22T04:17:31.350Z,6.80
2022-09-22T04:19:58.011Z,6.80
2022-09-22T04:22:25.122Z,6.80
2022-09-22T04:24:51.685Z,6.80
2022-09-22T04:27:20.640Z,6.80
2022-09-22T04:29:47.871Z,6.80
2022-09-22T04:32:14.788Z,6.70
2022-09-22T04:34:41.462Z,6.70
2022-09-22T04:37:08.187Z,6.70
2022-09-22T04:39:35.327Z,6.60
2022-09-22T04:42:02.056Z,6.50
2022-09-22T04:44:32.129Z,6.50
2022-09-22T04:47:01.436Z,6.40
2022-09-22T04:49:27.994Z,6.30
2022-09-22T04:51:54.711Z,6.20
2022-09-22T04:54:21.274Z,6.20
2022-09-22T04:56:47.912Z,6.10
2022-09-22T04:59:14.560Z,6.00
2022-09-22T05:01:41.589Z,6.00
2022-09-22T05:04:09.298Z,6.00
2022-09-22T05:06:36.410Z,5.90
2022-09-22T05:09:03.706Z,5.90
2022-09-22T05:11:31.024Z,5.90
2022-09-22T05:13:58.818Z,5.90
2022-09-22T05:16:25.837Z,5.90
2022-09-22T05:18:52.482Z,6.00
2022-09-22T05:21:19.670Z,6.00
2022-09-22T05:23:47.908Z,6.10
2022-09-22T05:26:14.606Z,6.10
2022-09-22T05:28:41.217Z,6.20
2022-09-22T05:31:07.932Z,6.20
2022-09-22T05:33:34.626Z,6.40
2022-09-22T05:36:01.320Z,6.80
2022-09-22T05:38:28.667Z,7.20
2022-09-22T05:40:55.401Z,7.70
2022-09-22T05:43:21.990Z,8.10
2022-09-22T05:45:49.743Z,8.60
2022-09-22T05:48:16.598Z,9.00
2022-09-22T05:50:43.552Z,9.40
2022-09-22T05:53:10.831Z,9.80
2022-09-22T05:55:38.335Z,10.20
2022-09-22T05:58:05.328Z,10.60
2022-09-22T06:00:32.433Z,11.00
2022-09-22T06:02:59.029Z,11.40
2022-09-22T06:05:25.762Z,11.80
2022-09-22T06:07:55.989Z,12.30
2022-09-22T06:10:22.677Z,12.70
2022-09-22T06:12:49.414Z,13.10
2022-09-22T06:15:16.169Z,13.50
2022-09-22T06:17:42.755Z,13.80
2022-09-22T06:20:09.493Z,14.20
2022-09-22T06:22:37.045Z,14.80
2022-09-22T06:25:03.791Z,15.30
2022-09-22T06:27:30.419Z,15.70
2022-09-22T06:29:57.491Z,15.90
2022-09-22T06:32:24.135Z,16.20
2022-09-22T06:34:50.919Z,16.50
2022-09-22T06:37:19.604Z,16.70
2022-09-22T06:39:46.431Z,16.90
2022-09-22T06:42:15.086Z,17.00
2022-09-22T06:44:41.754Z,16.60
2022-09-22T06:47:10.568Z,15.80
2022-09-22T06:49:37.200Z,15.00
2022-09-22T06:52:03.898Z,14.20
2022-09-22T06:54:30.704Z,13.60
2022-09-22T06:56:57.273Z,13.10
2022-09-22T06:59:24.749Z,12.70
2022-09-22T07:01:51.465Z,12.30
2022-09-22T07:04:19.950Z,12.00
2022-09-22T07:06:46.927Z,11.80
2022-09-22T07:09:13.649Z,11.70
2022-09-22T07:11:40.677Z,11.50
2022-09-22T07:14:08.403Z,11.40
2022-09-22T07:16:36.472Z,11.30
2022-09-22T07:19:04.781Z,11.30
2022-09-22T07:21:37.685Z,11.20
2022-09-22T07:24:05.175Z,11.30
2022-09-22T07:26:33.077Z,11.40
2022-09-22T07:29:01.446Z,11.50
2022-09-22T07:31:29.534Z,11.70
2022-09-22T07:33:56.798Z,11.90
2022-09-22T07:36:26.027Z,12.20
2022-09-22T07:38:53.680Z,12.60
2022-09-22T07:41:21.835Z,13.10
2022-09-22T07:43:52.834Z,13.60
2022-09-22T07:46:19.687Z,14.30
2022-09-22T07:48:47.788Z,14.70
2022-09-22T07:51:20.600Z,15.00
2022-09-22T07:53:51.458Z,15.40
2022-09-22T07:56:21.236Z,16.60
2022-09-22T07:58:49.948Z,18.20
2022-09-22T08:01:17.351Z,19.50
2022-09-22T08:03:46.274Z,20.70
2022-09-22T08:06:14.367Z,22.20
2022-09-22T08:08:42.541Z,23.10
2022-09-22T08:11:15.102Z,23.80
2022-09-22T08:13:43.688Z,25.10
2022-09-22T08:16:11.599Z,26.70
2022-09-22T08:18:39.856Z,27.70
2022-09-22T08:21:07.186Z,27.70
2022-09-22T08:23:34.264Z,27.20
2022-09-22T08:26:06.491Z,26.90
2022-09-22T08:28:33.450Z,26.80
2022-09-22T08:31:00.726Z,27.00
2022-09-22T08:33:29.467Z,27.20
2022-09-22T08:35:57.526Z,27.20
2022-09-22T08:38:25.628Z,26.80
2022-09-22T08:41:06.841Z,27.00
2022-09-22T08:43:34.095Z,27.90
2022-09-22T08:46:03.321Z,28.30
2022-09-22T08:48:56.387Z,28.40
2022-09-22T08:51:46.484Z,28.20
2022-09-22T08:54:13.316Z,28.20
2022-09-22T08:56:44.463Z,28.50
2022-09-22T08:59:23.572Z,28.20
2022-09-22T09:02:06.201Z,27.40
2022-09-22T09:04:52.988Z,26.90
2022-09-22T09:07:43.657Z,27.40
2022-09-22T09:10:27.006Z,28.80
2022-09-22T09:12:58.069Z,29.60
2022-09-22T09:15:29.104Z,29.50
2022-09-22T09:17:59.100Z,29.00
2022-09-22T09:20:35.578Z,29.40
2022-09-22T09:23:04.398Z,29.90
2022-09-22T09:25:35.898Z,29.50
2022-09-22T09:28:06.612Z,28.90
2022-09-22T09:30:41.949Z,28.20
2022-09-22T09:33:31.852Z,27.60
2022-09-22T09:35:59.242Z,27.20
2022-09-22T09:38:28.329Z,26.50
2022-09-22T09:40:58.910Z,25.70
2022-09-22T09:43:25.754Z,24.90
2022-09-22T09:46:11.682Z,24.30
2022-09-22T09:48:42.028Z,23.80
2022-09-22T09:51:11.447Z,23.40
2022-09-22T09:53:42.519Z,23.10
2022-09-22T09:56:20.769Z,22.60
2022-09-22T09:59:13.212Z,22.40
2022-09-22T10:01:42.098Z,22.40
2022-09-22T10:04:27.851Z,22.50
2022-09-22T10:06:55.399Z,22.50
2022-09-22T10:09:27.715Z,22.60
2022-09-22T10:12:04.189Z,22.90
2022-09-22T10:14:34.913Z,23.10
2022-09-22T10:17:01.652Z,23.40
2022-09-22T10:19:29.767Z,23.80
2022-09-22T10:22:15.269Z,24.00
2022-09-22T10:24:51.998Z,24.10
2022-09-22T10:27:23.991Z,24.30
2022-09-22T10:30:10.806Z,25.50
2022-09-22T10:32:38.084Z,27.10
2022-09-22T10:35:23.591Z,28.10
2022-09-22T10:37:50.540Z,28.40
2022-09-22T10:40:18.333Z,28.30
2022-09-22T10:42:46.136Z,27.80
2022-09-22T10:45:13.912Z,27.50
2022-09-22T10:47:52.542Z,28.50
2022-09-22T10:50:28.371Z,29.80
2022-09-22T10:53:03.930Z,30.80
2022-09-22T10:55:34.718Z,31.30
2022-09-22T10:58:05.053Z,31.90
2022-09-22T11:00:38.947Z,32.40
2022-09-22T11:03:06.326Z,32.70
2022-09-22T11:06:10.814Z,32.70
2022-09-22T11:09:08.270Z,32.90
2022-09-22T11:12:16.419Z,33.30
2022-09-22T11:14:49.903Z,33.30
2022-09-22T11:17:16.509Z,33.40
2022-09-22T11:19:56.092Z,33.60
2022-09-22T11:22:30.585Z,34.10
2022-09-22T11:25:17.525Z,34.50
2022-09-22T11:28:01.046Z,34.90
2022-09-22T11:30:30.058Z,35.50
2022-09-22T11:33:02.353Z,35.90
2022-09-22T11:35:50.150Z,36.00
2022-09-22T11:38:35.532Z,35.40
2022-09-22T11:41:17.545Z,34.60
2022-09-22T11:44:05.940Z,34.50
2022-09-22T11:46:46.649Z,34.70
2022-09-22T11:49:22.998Z,35.30
2022-09-22T11:51:54.339Z,35.50
2022-09-22T11:54:39.600Z,35.40
2022-09-22T11:57:11.134Z,35.10
2022-09-22T11:59:38.936Z,34.80
2022-09-22T12:02:26.553Z,34.80
2022-09-22T12:04:57.162Z,34.80
2022-09-22T12:07:33.429Z,34.80
2022-09-22T12:10:01.895Z,35.10
2022-09-22T12:12:30.273Z,35.40
2022-09-22T12:14:59.216Z,35.70
2022-09-22T12:17:29.171Z,35.80
2022-09-22T12:20:03.581Z,35.40
2022-09-22T12:22:33.719Z,34.10
2022-09-22T12:25:01.425Z,32.30
2022-09-22T12:27:29.962Z,29.90
2022-09-22T12:29:57.978Z,27.80
2022-09-22T12:32:29.538Z,26.10
2022-09-22T12:34:59.251Z,24.90
2022-09-22T12:37:30.918Z,25.30
2022-09-22T12:40:16.481Z,26.80
2022-09-22T12:42:46.332Z,28.30
2022-09-22T12:45:16.253Z,29.30
2022-09-22T12:47:47.986Z,29.60
2022-09-22T12:50:23.934Z,29.40
2022-09-22T12:52:51.142Z,28.40
2022-09-22T12:55:21.610Z,26.90
2022-09-22T12:57:50.263Z,25.50
2022-09-22T13:00:35.191Z,24.30
2022-09-22T13:03:21.782Z,23.30
2022-09-22T13:05:48.810Z,22.30
2022-09-22T13:08:16.586Z,21.60
2022-09-22T13:10:50.483Z,21.00
2022-09-22T13:13:43.684Z,20.50
2022-09-22T13:16:16.364Z,20.10
2022-09-22T13:18:45.853Z,19.90
2022-09-22T13:21:12.435Z,19.60
2022-09-22T13:23:54.372Z,19.40
2022-09-22T13:26:25.885Z,19.10
2022-09-22T13:28:59.380Z,18.90
2022-09-22T13:31:26.498Z,18.80
2022-09-22T13:33:53.131Z,18.50
2022-09-22T13:36:20.489Z,18.30
2022-09-22T13:38:53.023Z,18.10
2022-09-22T13:41:24.001Z,17.90
2022-09-22T13:43:55.495Z,17.70
2022-09-22T13:46:28.947Z,17.50
2022-09-22T13:48:57.064Z,17.40
2022-09-22T13:51:24.940Z,17.30
2022-09-22T13:53:53.011Z,17.30
2022-09-22T13:56:22.003Z,17.10
2022-09-22T13:58:50.049Z,17.00
2022-09-22T14:01:19.531Z,16.90
2022-09-22T14:03:46.977Z,16.90
2022-09-22T14:06:33.878Z,16.80
2022-09-22T14:09:01.563Z,16.70
2022-09-22T14:11:29.966Z,16.70
2022-09-22T14:13:58.255Z,16.70
2022-09-22T14:16:24.866Z,16.80
2022-09-22T14:18:53.681Z,16.80
2022-09-22T14:21:21.567Z,16.80
2022-09-22T14:23:49.781Z,16.70
2022-09-22T14:26:37.322Z,16.80
2022-09-22T14:29:24.125Z,16.80
2022-09-22T14:31:54.166Z,16.70
2022-09-22T14:34:25.969Z,16.70
2022-09-22T14:36:53.393Z,16.60
2022-09-22T14:39:30.555Z,16.50
2022-09-22T14:42:06.233Z,16.50
2022-09-22T14:44:35.344Z,16.50
2022-09-22T14:47:20.041Z,16.40
2022-09-22T14:49:48.269Z,16.30
2022-09-22T14:52:26.720Z,16.20
2022-09-22T14:54:54.936Z,16.20
2022-09-22T14:57:21.589Z,16.20
2022-09-22T15:00:11.242Z,16.10
2022-09-22T15:02:41.244Z,16.10
2022-09-22T15:05:09.157Z,16.10
2022-09-22T15:07:39.319Z,16.10
2022-09-22T15:10:07.750Z,16.20
2022-09-22T15:12:36.534Z,16.20
2022-09-22T15:15:04.105Z,16.20
2022-09-22T15:17:52.813Z,16.20
2022-09-22T15:20:42.824Z,16.20
2022-09-22T15:23:31.701Z,16.20
2022-09-22T15:26:05.016Z,16.20
2022-09-22T15:28:32.745Z,16.10
2022-09-22T15:30:59.388Z,16.00
2022-09-22T15:33:26.618Z,15.90
2022-09-22T15:35:54.306Z,15.90
2022-09-22T15:38:23.577Z,15.90
2022-09-22T15:40:50.946Z,15.80
2022-09-22T15:43:20.453Z,15.90
2022-09-22T15:45:48.536Z,15.80
2022-09-22T15:48:23.720Z,15.80
2022-09-22T15:50:51.090Z,15.80
2022-09-22T15:53:17.733Z,15.80
2022-09-22T15:55:44.529Z,16.00
2022-09-22T15:58:13.968Z,16.10
2022-09-22T16:00:40.661Z,16.40
2022-09-22T16:03:19.558Z,16.60
2022-09-22T16:05:46.362Z,16.50
2022-09-22T16:08:14.954Z,16.30
2022-09-22T16:10:44.901Z,16.20
2022-09-22T16:13:12.396Z,16.10
2022-09-22T16:15:39.510Z,16.20
2022-09-22T16:18:10.038Z,16.20
2022-09-22T16:20:37.266Z,16.00
2022-09-22T16:23:04.965Z,15.90
2022-09-22T16:25:32.381Z,15.70
2022-09-22T16:27:59.234Z,15.50
2022-09-22T16:30:27.141Z,15.40
2022-09-22T16:32:54.288Z,15.20
2022-09-22T16:35:24.344Z,15.10
2022-09-22T16:37:55.722Z,15.00
2022-09-22T16:40:26.859Z,14.90
2022-09-22T16:42:53.831Z,14.80
2022-09-22T16:45:40.517Z,14.70
2022-09-22T16:48:07.224Z,14.60
2022-09-22T16:50:36.441Z,14.50
2022-09-22T16:53:04.296Z,14.40
2022-09-22T16:55:33.602Z,14.30
2022-09-22T16:58:02.834Z,14.20
2022-09-22T17:00:31.852Z,14.10
2022-09-22T17:02:58.747Z,14.00
2022-09-22T17:05:25.754Z,13.90
2022-09-22T17:07:52.694Z,13.80
2022-09-22T17:10:19.984Z,13.70
2022-09-22T17:12:46.671Z,13.70
2022-09-22T17:15:16.349Z,13.60
2022-09-22T17:17:44.723Z,13.50
2022-09-22T17:20:11.463Z,13.40
2022-09-22T17:22:38.352Z,13.40
2022-09-22T17:25:05.372Z,13.30
2022-09-22T17:27:32.044Z,13.20
2022-09-22T17:29:59.157Z,13.10
2022-09-22T17:32:28.032Z,13.10
2022-09-22T17:34:54.863Z,13.10
2022-09-22T17:37:21.872Z,13.00
2022-09-22T17:39:49.127Z,12.90
2022-09-22T17:42:15.928Z,12.90
2022-09-22T17:44:42.527Z,12.80
2022-09-22T17:47:28.073Z,12.70
2022-09-22T17:50:13.508Z,12.60
2022-09-22T17:52:40.110Z,12.40
2022-09-22T17:55:09.527Z,12.30
2022-09-22T17:57:36.285Z,12.20
2022-09-22T18:00:03.962Z,12.00
2022-09-22T18:02:32.301Z,12.00
2022-09-22T18:04:58.958Z,11.90
2022-09-22T18:07:26.438Z,11.80
2022-09-22T18:09:55.358Z,11.70
2022-09-22T18:12:23.686Z,11.70
2022-09-22T18:14:52.313Z,11.50
2022-09-22T18:17:20.635Z,11.50
2022-09-22T18:19:47.376Z,11.50
2022-09-22T18:22:16.954Z,11.40
2022-09-22T18:24:43.979Z,11.30
2022-09-22T18:27:13.140Z,11.20
2022-09-22T18:29:39.738Z,11.20
2022-09-22T18:32:06.403Z,11.10
2022-09-22T18:34:33.057Z,11.10
2022-09-22T18:37:04.445Z,11.00
2022-09-22T18:39:31.403Z,11.00
2022-09-22T18:41:58.583Z,11.00
2022-09-22T18:44:25.467Z,10.90
2022-09-22T18:46:52.437Z,10.90
2022-09-22T18:49:19.073Z,10.80
2022-09-22T18:51:49.124Z,10.80
2022-09-22T18:54:16.958Z,10.70
2022-09-22T18:56:45.088Z,10.60
2022-09-22T18:59:16.041Z,10.60
2022-09-22T19:01:43.252Z,10.60
2022-09-22T19:04:19.888Z,10.60
2022-09-22T19:07:06.292Z,10.50
2022-09-22T19:09:33.279Z,10.50
2022-09-22T19:12:00.369Z,10.50
2022-09-22T19:14:27.192Z,10.50
2022-09-22T19:16:53.809Z,10.40
2022-09-22T19:19:21.072Z,10.40
2022-09-22T19:21:51.522Z,10.40
2022-09-22T19:24:18.362Z,10.40
2022-09-22T19:26:45.660Z,10.40
2022-09-22T19:29:12.534Z,10.30
2022-09-22T19:31:42.256Z,10.30
2022-09-22T19:34:09.866Z,10.20
2022-09-22T19:36:37.207Z,10.20
2022-09-22T19:39:05.762Z,10.10
2022-09-22T19:41:34.376Z,10.00
2022-09-22T19:44:02.069Z,10.00
2022-09-22T19:46:29.268Z,9.90
2022-09-22T19:48:57.384Z,9.90
2022-09-22T19:51:24.409Z,9.80
2022-09-22T19:53:51.995Z,9.80
2022-09-22T19:56:20.918Z,9.80
2022-09-22T19:58:47.983Z,9.70
2022-09-22T20:01:31.175Z,9.70
2022-09-22T20:03:58.520Z,9.60
2022-09-22T20:06:25.573Z,9.60
2022-09-22T20:08:55.829Z,9.50
2022-09-22T20:11:26.592Z,9.50
2022-09-22T20:14:12.418Z,9.40
2022-09-22T20:16:39.763Z,9.40
2022-09-22T20:19:07.690Z,9.40
2022-09-22T20:21:35.538Z,9.40
2022-09-22T20:24:03.304Z,9.50
2022-09-22T20:26:31.097Z,9.50
2022-09-22T20:28:59.062Z,9.50
2022-09-22T20:31:25.730Z,9.40
2022-09-22T20:33:52.498Z,9.30
2022-09-22T20:36:19.710Z,9.30
2022-09-22T20:38:46.335Z,9.20
2022-09-22T20:41:21.798Z,9.20
2022-09-22T20:43:49.178Z,9.20
2022-09-22T20:46:16.548Z,9.20
2022-09-22T20:48:43.224Z,9.20
2022-09-22T20:51:09.796Z,9.20
2022-09-22T20:53:36.706Z,9.10
2022-09-22T20:56:07.984Z,9.00
2022-09-22T20:58:39.113Z,9.00
2022-09-22T21:01:06.478Z,8.90
2022-09-22T21:03:33.465Z,8.80
2022-09-22T21:06:00.651Z,8.70
2022-09-22T21:08:46.586Z,8.60
2022-09-22T21:11:17.268Z,8.60
2022-09-22T21:13:44.164Z,8.50
2022-09-22T21:16:11.234Z,8.40
2022-09-22T21:18:38.139Z,8.40
2022-09-22T21:21:05.813Z,8.30
2022-09-22T21:23:32.968Z,8.30
2022-09-22T21:26:01.087Z,8.30
2022-09-22T21:28:28.242Z,8.30
2022-09-22T21:30:58.850Z,8.30
2022-09-22T21:33:27.057Z,8.20
2022-09-22T21:36:10.442Z,8.20
2022-09-22T21:38:37.115Z,8.10
2022-09-22T21:41:05.479Z,8.10
2022-09-22T21:43:32.959Z,8.10
2022-09-22T21:46:05.061Z,8.10
2022-09-22T21:48:33.215Z,8.10
2022-09-22T21:51:02.103Z,8.10
2022-09-22T21:53:29.232Z,8.00
2022-09-22T21:55:59.899Z,7.90
2022-09-22T21:58:27.144Z,7.80
2022-09-22T22:00:53.984Z,7.80
2022-09-22T22:03:33.832Z,7.80
2022-09-22T22:06:03.346Z,7.80
2022-09-22T22:08:33.702Z,7.80
2022-09-22T22:11:10.929Z,7.90
2022-09-22T22:13:38.637Z,7.90
2022-09-22T22:16:08.004Z,7.80
2022-09-22T22:18:37.378Z,7.80
2022-09-22T22:21:06.035Z,7.70
2022-09-22T22:23:34.573Z,7.60
2022-09-22T22:26:04.283Z,7.60
2022-09-22T22:28:31.725Z,7.60
2022-09-22T22:31:01.319Z,7.60
2022-09-22T22:33:28.228Z,7.80
2022-09-22T22:35:55.636Z,7.90
2022-09-22T22:38:22.567Z,8.00
2022-09-22T22:40:49.584Z,8.00
2022-09-22T22:43:17.235Z,8.00
2022-09-22T22:45:47.644Z,8.00
2022-09-22T22:48:18.273Z,8.00
2022-09-22T22:50:44.905Z,8.00
2022-09-22T22:53:12.595Z,8.00
2022-09-22T22:55:40.453Z,8.00
2022-09-22T22:58:07.503Z,7.90
2022-09-22T23:00:34.132Z,7.80
2022-09-22T23:03:00.980Z,7.70
2022-09-22T23:05:27.974Z,7.70
2022-09-22T23:07:54.808Z,7.60
2022-09-22T23:10:21.606Z,7.60
2022-09-22T23:12:48.585Z,7.50
2022-09-22T23:15:16.256Z,7.50
2022-09-22T23:17:42.915Z,7.50
2022-09-22T23:20:09.793Z,7.40
2022-09-22T23:22:36.420Z,7.40
2022-09-22T23:25:03.191Z,7.40
2022-09-22T23:27:29.895Z,7.40
2022-09-22T23:29:57.157Z,7.30
2022-09-22T23:32:24.512Z,7.40
2022-09-22T23:34:51.160Z,7.30
2022-09-22T23:37:17.818Z,7.20
2022-09-22T23:39:44.687Z,7.20
2022-09-22T23:42:11.308Z,7.10
2022-09-22T23:44:38.172Z,7.10
2022-09-22T23:47:04.844Z,7.00
2022-09-22T23:49:32.421Z,6.90
2022-09-22T23:51:59.042Z,6.90
2022-09-22T23:54:25.744Z,6.90
2022-09-22T23:56:52.320Z,6.90
2022-09-22T23:59:18.954Z,6.90
